sensor_id;sensor_type;location;lat;lon;timestamp;pressure;altitude;pressure_sealevel;temperature
34023;BMP280;20673;48.980;8.138;2023-06-26T00:02:12;99922.42;;;17.84
34023;BMP280;20673;48.980;8.138;2023-06-26T00:04:39;99922.87;;;17.76
34023;BMP280;20673;48.980;8.138;2023-06-26T00:07:05;99925.76;;;17.74
34023;BMP280;20673;48.980;8.138;2023-06-26T00:09:32;99927.30;;;17.73
34023;BMP280;20673;48.980;8.138;2023-06-26T00:11:58;99929.08;;;17.72
34023;BMP280;20673;48.980;8.138;2023-06-26T00:14:25;99936.28;;;17.73
34023;BMP280;20673;48.980;8.138;2023-06-26T00:16:52;99934.36;;;17.75
34023;BMP280;20673;48.980;8.138;2023-06-26T00:19:18;99937.32;;;17.72
34023;BMP280;20673;48.980;8.138;2023-06-26T00:21:45;99938.15;;;17.66
34023;BMP280;20673;48.980;8.138;2023-06-26T00:24:13;99934.15;;;17.61
34023;BMP280;20673;48.980;8.138;2023-06-26T00:26:40;99941.33;;;17.58
34023;BMP280;20673;48.980;8.138;2023-06-26T00:29:06;99938.04;;;17.60
34023;BMP280;20673;48.980;8.138;2023-06-26T00:31:32;99940.22;;;17.54
34023;BMP280;20673;48.980;8.138;2023-06-26T00:33:58;99935.33;;;17.49
34023;BMP280;20673;48.980;8.138;2023-06-26T00:36:24;99935.08;;;17.48
34023;BMP280;20673;48.980;8.138;2023-06-26T00:38:55;99932.50;;;17.41
34023;BMP280;20673;48.980;8.138;2023-06-26T00:41:21;99937.54;;;17.38
34023;BMP280;20673;48.980;8.138;2023-06-26T00:43:48;99939.42;;;17.39
34023;BMP280;20673;48.980;8.138;2023-06-26T00:46:14;99937.45;;;17.39
34023;BMP280;20673;48.980;8.138;2023-06-26T00:48:44;99940.08;;;17.42
34023;BMP280;20673;48.980;8.138;2023-06-26T00:51:12;99939.06;;;17.41
34023;BMP280;20673;48.980;8.138;2023-06-26T00:53:39;99938.64;;;17.43
34023;BMP280;20673;48.980;8.138;2023-06-26T00:56:05;99936.01;;;17.39
34023;BMP280;20673;48.980;8.138;2023-06-26T00:58:32;99934.15;;;17.36
34023;BMP280;20673;48.980;8.138;2023-06-26T01:00:58;99931.40;;;17.31
34023;BMP280;20673;48.980;8.138;2023-06-26T01:03:26;99931.33;;;17.23
34023;BMP280;20673;48.980;8.138;2023-06-26T01:05:56;99930.08;;;17.18
34023;BMP280;20673;48.980;8.138;2023-06-26T01:08:25;99926.89;;;17.18
34023;BMP280;20673;48.980;8.138;2023-06-26T01:10:51;99926.06;;;17.17
34023;BMP280;20673;48.980;8.138;2023-06-26T01:13:18;99926.05;;;17.15
34023;BMP280;20673;48.980;8.138;2023-06-26T01:15:46;99931.73;;;17.14
34023;BMP280;20673;48.980;8.138;2023-06-26T01:18:12;99930.28;;;17.11
34023;BMP280;20673;48.980;8.138;2023-06-26T01:20:41;99932.45;;;17.09
34023;BMP280;20673;48.980;8.138;2023-06-26T01:23:22;99926.09;;;17.08
34023;BMP280;20673;48.980;8.138;2023-06-26T01:28:47;99926.43;;;16.97
34023;BMP280;20673;48.980;8.138;2023-06-26T01:31:15;99927.06;;;16.97
34023;BMP280;20673;48.980;8.138;2023-06-26T01:33:42;99928.39;;;16.90
34023;BMP280;20673;48.980;8.138;2023-06-26T01:36:09;99931.76;;;16.78
34023;BMP280;20673;48.980;8.138;2023-06-26T01:38:36;99930.49;;;16.79
34023;BMP280;20673;48.980;8.138;2023-06-26T01:41:04;99916.12;;;16.80
34023;BMP280;20673;48.980;8.138;2023-06-26T01:46:59;99916.47;;;16.79
34023;BMP280;20673;48.980;8.138;2023-06-26T01:49:47;99921.08;;;16.69
34023;BMP280;20673;48.980;8.138;2023-06-26T01:52:43;99916.01;;;16.68
34023;BMP280;20673;48.980;8.138;2023-06-26T01:57:48;99919.25;;;16.68
34023;BMP280;20673;48.980;8.138;2023-06-26T02:00:16;99920.04;;;16.67
34023;BMP280;20673;48.980;8.138;2023-06-26T02:02:46;99916.24;;;16.64
34023;BMP280;20673;48.980;8.138;2023-06-26T02:05:13;99916.83;;;16.58
34023;BMP280;20673;48.980;8.138;2023-06-26T02:07:40;99913.29;;;16.56
34023;BMP280;20673;48.980;8.138;2023-06-26T02:10:07;99918.72;;;16.55
34023;BMP280;20673;48.980;8.138;2023-06-26T02:12:35;99914.87;;;16.48
34023;BMP280;20673;48.980;8.138;2023-06-26T02:15:02;99915.42;;;16.42
34023;BMP280;20673;48.980;8.138;2023-06-26T02:17:29;99911.56;;;16.41
34023;BMP280;20673;48.980;8.138;2023-06-26T02:19:55;99907.48;;;16.36
34023;BMP280;20673;48.980;8.138;2023-06-26T02:22:21;99904.33;;;16.34
34023;BMP280;20673;48.980;8.138;2023-06-26T02:24:48;99905.50;;;16.31
34023;BMP280;20673;48.980;8.138;2023-06-26T02:27:14;99904.18;;;16.35
34023;BMP280;20673;48.980;8.138;2023-06-26T02:29:42;99908.58;;;16.29
34023;BMP280;20673;48.980;8.138;2023-06-26T02:32:08;99909.37;;;16.27
34023;BMP280;20673;48.980;8.138;2023-06-26T02:34:35;99913.51;;;16.21
34023;BMP280;20673;48.980;8.138;2023-06-26T02:37:02;99908.88;;;16.16
34023;BMP280;20673;48.980;8.138;2023-06-26T02:39:28;99911.25;;;16.12
34023;BMP280;20673;48.980;8.138;2023-06-26T02:41:54;99920.25;;;16.11
34023;BMP280;20673;48.980;8.138;2023-06-26T02:44:21;99921.21;;;16.09
34023;BMP280;20673;48.980;8.138;2023-06-26T02:46:47;99921.26;;;16.11
34023;BMP280;20673;48.980;8.138;2023-06-26T02:49:13;99919.04;;;16.05
34023;BMP280;20673;48.980;8.138;2023-06-26T02:51:39;99914.73;;;16.01
34023;BMP280;20673;48.980;8.138;2023-06-26T02:54:05;99914.98;;;15.94
34023;BMP280;20673;48.980;8.138;2023-06-26T02:56:31;99915.90;;;15.87
34023;BMP280;20673;48.980;8.138;2023-06-26T02:58:58;99918.31;;;15.82
34023;BMP280;20673;48.980;8.138;2023-06-26T03:01:24;99915.86;;;15.80
34023;BMP280;20673;48.980;8.138;2023-06-26T03:03:51;99919.72;;;15.80
34023;BMP280;20673;48.980;8.138;2023-06-26T03:06:18;99918.77;;;15.78
34023;BMP280;20673;48.980;8.138;2023-06-26T03:08:44;99916.76;;;15.78
34023;BMP280;20673;48.980;8.138;2023-06-26T03:11:10;99918.11;;;15.80
34023;BMP280;20673;48.980;8.138;2023-06-26T03:13:37;99920.54;;;15.84
34023;BMP280;20673;48.980;8.138;2023-06-26T03:16:04;99924.73;;;15.84
34023;BMP280;20673;48.980;8.138;2023-06-26T03:18:30;99928.93;;;15.91
34023;BMP280;20673;48.980;8.138;2023-06-26T03:20:57;99924.75;;;15.80
34023;BMP280;20673;48.980;8.138;2023-06-26T03:23:23;99924.26;;;15.81
34023;BMP280;20673;48.980;8.138;2023-06-26T03:25:50;99924.04;;;15.78
34023;BMP280;20673;48.980;8.138;2023-06-26T03:28:17;99926.05;;;15.78
34023;BMP280;20673;48.980;8.138;2023-06-26T03:30:43;99927.05;;;15.75
34023;BMP280;20673;48.980;8.138;2023-06-26T03:33:10;99931.50;;;15.78
34023;BMP280;20673;48.980;8.138;2023-06-26T03:35:37;99935.05;;;15.79
34023;BMP280;20673;48.980;8.138;2023-06-26T03:38:04;99930.34;;;15.77
34023;BMP280;20673;48.980;8.138;2023-06-26T03:40:31;99938.28;;;15.76
34023;BMP280;20673;48.980;8.138;2023-06-26T03:42:57;99934.11;;;15.76
34023;BMP280;20673;48.980;8.138;2023-06-26T03:45:23;99937.00;;;15.78
34023;BMP280;20673;48.980;8.138;2023-06-26T03:47:49;99937.37;;;15.78
34023;BMP280;20673;48.980;8.138;2023-06-26T03:50:16;99936.84;;;15.81
34023;BMP280;20673;48.980;8.138;2023-06-26T03:52:42;99941.83;;;15.85
34023;BMP280;20673;48.980;8.138;2023-06-26T03:55:09;99944.53;;;15.90
34023;BMP280;20673;48.980;8.138;2023-06-26T03:57:35;99945.06;;;15.94
34023;BMP280;20673;48.980;8.138;2023-06-26T04:00:02;99937.24;;;15.97
34023;BMP280;20673;48.980;8.138;2023-06-26T04:02:30;99938.90;;;15.99
34023;BMP280;20673;48.980;8.138;2023-06-26T04:04:56;99938.90;;;16.06
34023;BMP280;20673;48.980;8.138;2023-06-26T04:07:22;99937.36;;;16.11
34023;BMP280;20673;48.980;8.138;2023-06-26T04:09:49;99942.49;;;16.17
34023;BMP280;20673;48.980;8.138;2023-06-26T04:12:15;99945.97;;;16.23
34023;BMP280;20673;48.980;8.138;2023-06-26T04:14:41;99942.50;;;16.33
34023;BMP280;20673;48.980;8.138;2023-06-26T04:17:07;99947.53;;;16.43
34023;BMP280;20673;48.980;8.138;2023-06-26T04:19:33;99951.51;;;16.55
34023;BMP280;20673;48.980;8.138;2023-06-26T04:22:01;99951.83;;;16.63
34023;BMP280;20673;48.980;8.138;2023-06-26T04:24:27;99954.40;;;16.71
34023;BMP280;20673;48.980;8.138;2023-06-26T04:26:54;99950.70;;;16.80
34023;BMP280;20673;48.980;8.138;2023-06-26T04:29:21;99948.32;;;16.91
34023;BMP280;20673;48.980;8.138;2023-06-26T04:31:49;99942.72;;;17.02
34023;BMP280;20673;48.980;8.138;2023-06-26T04:34:15;99946.61;;;17.13
34023;BMP280;20673;48.980;8.138;2023-06-26T04:36:41;99947.58;;;17.24
34023;BMP280;20673;48.980;8.138;2023-06-26T04:39:09;99947.50;;;17.33
34023;BMP280;20673;48.980;8.138;2023-06-26T04:41:37;99949.09;;;17.46
34023;BMP280;20673;48.980;8.138;2023-06-26T04:44:03;99945.51;;;17.56
34023;BMP280;20673;48.980;8.138;2023-06-26T04:46:29;99954.73;;;17.66
34023;BMP280;20673;48.980;8.138;2023-06-26T04:48:55;99944.58;;;17.77
34023;BMP280;20673;48.980;8.138;2023-06-26T04:51:25;99945.09;;;17.90
34023;BMP280;20673;48.980;8.138;2023-06-26T04:53:53;99945.98;;;18.00
34023;BMP280;20673;48.980;8.138;2023-06-26T04:56:19;99949.51;;;18.08
34023;BMP280;20673;48.980;8.138;2023-06-26T04:58:45;99944.81;;;18.22
34023;BMP280;20673;48.980;8.138;2023-06-26T05:01:11;99940.00;;;18.33
34023;BMP280;20673;48.980;8.138;2023-06-26T05:03:39;99940.39;;;18.49
34023;BMP280;20673;48.980;8.138;2023-06-26T05:06:05;99939.47;;;18.60
34023;BMP280;20673;48.980;8.138;2023-06-26T05:08:32;99937.73;;;18.73
34023;BMP280;20673;48.980;8.138;2023-06-26T05:10:58;99940.54;;;18.91
34023;BMP280;20673;48.980;8.138;2023-06-26T05:13:25;99944.00;;;19.07
34023;BMP280;20673;48.980;8.138;2023-06-26T05:15:52;99939.01;;;19.23
34023;BMP280;20673;48.980;8.138;2023-06-26T05:18:19;99944.18;;;19.46
34023;BMP280;20673;48.980;8.138;2023-06-26T05:20:46;99947.96;;;19.65
34023;BMP280;20673;48.980;8.138;2023-06-26T05:23:12;99944.77;;;19.88
34023;BMP280;20673;48.980;8.138;2023-06-26T05:25:39;99945.33;;;20.09
34023;BMP280;20673;48.980;8.138;2023-06-26T05:28:07;99951.97;;;20.26
34023;BMP280;20673;48.980;8.138;2023-06-26T05:30:36;99952.72;;;20.48
34023;BMP280;20673;48.980;8.138;2023-06-26T05:33:03;99957.70;;;20.66
34023;BMP280;20673;48.980;8.138;2023-06-26T05:35:30;99952.68;;;20.82
34023;BMP280;20673;48.980;8.138;2023-06-26T05:37:58;99952.85;;;20.93
34023;BMP280;20673;48.980;8.138;2023-06-26T05:40:25;99944.49;;;21.05
34023;BMP280;20673;48.980;8.138;2023-06-26T05:42:52;99944.19;;;21.17
34023;BMP280;20673;48.980;8.138;2023-06-26T05:45:18;99954.37;;;21.30
34023;BMP280;20673;48.980;8.138;2023-06-26T05:47:44;99946.72;;;21.47
34023;BMP280;20673;48.980;8.138;2023-06-26T05:50:13;99943.92;;;21.60
34023;BMP280;20673;48.980;8.138;2023-06-26T05:52:40;99952.08;;;21.76
34023;BMP280;20673;48.980;8.138;2023-06-26T05:55:07;99959.14;;;21.88
34023;BMP280;20673;48.980;8.138;2023-06-26T05:57:35;99960.48;;;21.94
34023;BMP280;20673;48.980;8.138;2023-06-26T06:00:03;99968.43;;;22.06
34023;BMP280;20673;48.980;8.138;2023-06-26T06:02:31;99974.73;;;22.12
34023;BMP280;20673;48.980;8.138;2023-06-26T06:04:57;99968.47;;;22.23
34023;BMP280;20673;48.980;8.138;2023-06-26T06:07:23;99967.16;;;22.32
34023;BMP280;20673;48.980;8.138;2023-06-26T06:09:49;99973.17;;;22.40
34023;BMP280;20673;48.980;8.138;2023-06-26T06:12:15;99968.18;;;22.56
34023;BMP280;20673;48.980;8.138;2023-06-26T06:14:41;99966.09;;;22.66
34023;BMP280;20673;48.980;8.138;2023-06-26T06:17:07;99966.93;;;22.80
34023;BMP280;20673;48.980;8.138;2023-06-26T06:19:33;99963.11;;;22.93
34023;BMP280;20673;48.980;8.138;2023-06-26T06:21:59;99966.29;;;23.01
34023;BMP280;20673;48.980;8.138;2023-06-26T06:24:25;99965.35;;;23.19
34023;BMP280;20673;48.980;8.138;2023-06-26T06:26:52;99964.36;;;23.30
34023;BMP280;20673;48.980;8.138;2023-06-26T06:29:18;99970.96;;;23.37
34023;BMP280;20673;48.980;8.138;2023-06-26T06:31:45;99972.81;;;23.46
34023;BMP280;20673;48.980;8.138;2023-06-26T06:34:12;99975.37;;;23.54
34023;BMP280;20673;48.980;8.138;2023-06-26T06:36:39;99965.73;;;23.64
34023;BMP280;20673;48.980;8.138;2023-06-26T06:39:05;99971.81;;;23.67
34023;BMP280;20673;48.980;8.138;2023-06-26T06:41:31;99966.24;;;23.80
34023;BMP280;20673;48.980;8.138;2023-06-26T06:43:57;99971.08;;;23.85
34023;BMP280;20673;48.980;8.138;2023-06-26T06:46:24;99970.45;;;24.00
34023;BMP280;20673;48.980;8.138;2023-06-26T06:48:51;99972.15;;;24.16
34023;BMP280;20673;48.980;8.138;2023-06-26T06:51:18;99969.54;;;24.35
34023;BMP280;20673;48.980;8.138;2023-06-26T06:53:44;99970.34;;;24.48
34023;BMP280;20673;48.980;8.138;2023-06-26T06:56:10;99972.00;;;24.56
34023;BMP280;20673;48.980;8.138;2023-06-26T06:58:36;99973.95;;;24.70
34023;BMP280;20673;48.980;8.138;2023-06-26T07:01:02;99976.31;;;24.87
34023;BMP280;20673;48.980;8.138;2023-06-26T07:03:30;99973.58;;;24.98
34023;BMP280;20673;48.980;8.138;2023-06-26T07:05:56;99969.48;;;25.20
34023;BMP280;20673;48.980;8.138;2023-06-26T07:08:22;99958.89;;;25.27
34023;BMP280;20673;48.980;8.138;2023-06-26T07:10:48;99964.25;;;25.32
34023;BMP280;20673;48.980;8.138;2023-06-26T07:13:14;99962.98;;;25.44
34023;BMP280;20673;48.980;8.138;2023-06-26T07:15:40;99968.40;;;25.49
34023;BMP280;20673;48.980;8.138;2023-06-26T07:18:06;99969.44;;;25.52
34023;BMP280;20673;48.980;8.138;2023-06-26T07:20:32;99970.47;;;25.55
34023;BMP280;20673;48.980;8.138;2023-06-26T07:22:58;99969.01;;;25.61
34023;BMP280;20673;48.980;8.138;2023-06-26T07:25:24;99967.99;;;25.59
34023;BMP280;20673;48.980;8.138;2023-06-26T07:27:50;99968.36;;;25.72
34023;BMP280;20673;48.980;8.138;2023-06-26T07:30:16;99963.81;;;25.92
34023;BMP280;20673;48.980;8.138;2023-06-26T07:32:44;99972.80;;;25.98
34023;BMP280;20673;48.980;8.138;2023-06-26T07:35:11;99966.61;;;26.10
34023;BMP280;20673;48.980;8.138;2023-06-26T07:37:37;99970.39;;;26.14
34023;BMP280;20673;48.980;8.138;2023-06-26T07:40:04;99965.85;;;26.18
34023;BMP280;20673;48.980;8.138;2023-06-26T07:42:30;99975.59;;;26.29
34023;BMP280;20673;48.980;8.138;2023-06-26T07:44:56;99978.42;;;26.35
34023;BMP280;20673;48.980;8.138;2023-06-26T07:47:23;99974.98;;;26.55
34023;BMP280;20673;48.980;8.138;2023-06-26T07:49:49;99985.27;;;26.55
34023;BMP280;20673;48.980;8.138;2023-06-26T07:52:15;99984.68;;;26.76
34023;BMP280;20673;48.980;8.138;2023-06-26T07:54:41;99980.87;;;26.70
34023;BMP280;20673;48.980;8.138;2023-06-26T07:57:07;99984.89;;;26.84
34023;BMP280;20673;48.980;8.138;2023-06-26T07:59:35;99982.17;;;26.81
34023;BMP280;20673;48.980;8.138;2023-06-26T08:02:01;99984.70;;;26.64
34023;BMP280;20673;48.980;8.138;2023-06-26T08:04:29;99985.78;;;26.73
34023;BMP280;20673;48.980;8.138;2023-06-26T08:06:59;99987.36;;;26.78
34023;BMP280;20673;48.980;8.138;2023-06-26T08:09:28;99995.86;;;26.89
34023;BMP280;20673;48.980;8.138;2023-06-26T08:11:56;99998.91;;;26.70
34023;BMP280;20673;48.980;8.138;2023-06-26T08:14:23;100004.92;;;26.94
34023;BMP280;20673;48.980;8.138;2023-06-26T08:16:49;100006.23;;;27.10
34023;BMP280;20673;48.980;8.138;2023-06-26T08:19:16;100003.04;;;26.94
34023;BMP280;20673;48.980;8.138;2023-06-26T08:21:45;100015.67;;;26.94
34023;BMP280;20673;48.980;8.138;2023-06-26T08:24:12;100012.65;;;27.18
34023;BMP280;20673;48.980;8.138;2023-06-26T08:26:46;100009.78;;;27.42
34023;BMP280;20673;48.980;8.138;2023-06-26T08:29:12;100006.75;;;27.39
34023;BMP280;20673;48.980;8.138;2023-06-26T08:31:40;100004.18;;;27.54
34023;BMP280;20673;48.980;8.138;2023-06-26T08:34:07;100002.51;;;27.59
34023;BMP280;20673;48.980;8.138;2023-06-26T08:36:33;100005.40;;;27.54
34023;BMP280;20673;48.980;8.138;2023-06-26T08:39:00;100007.75;;;27.46
34023;BMP280;20673;48.980;8.138;2023-06-26T08:41:26;100008.05;;;27.70
34023;BMP280;20673;48.980;8.138;2023-06-26T08:43:52;100009.18;;;27.79
34023;BMP280;20673;48.980;8.138;2023-06-26T08:46:19;100007.48;;;27.83
34023;BMP280;20673;48.980;8.138;2023-06-26T08:49:04;100011.29;;;27.58
34023;BMP280;20673;48.980;8.138;2023-06-26T08:51:32;100018.86;;;27.40
34023;BMP280;20673;48.980;8.138;2023-06-26T08:54:01;100026.66;;;27.37
34023;BMP280;20673;48.980;8.138;2023-06-26T08:56:35;100023.07;;;27.60
34023;BMP280;20673;48.980;8.138;2023-06-26T08:59:03;100022.54;;;27.85
34023;BMP280;20673;48.980;8.138;2023-06-26T09:01:31;100027.25;;;28.00
34023;BMP280;20673;48.980;8.138;2023-06-26T09:03:57;100025.48;;;28.13
34023;BMP280;20673;48.980;8.138;2023-06-26T09:06:23;100024.71;;;28.48
34023;BMP280;20673;48.980;8.138;2023-06-26T09:08:50;100025.67;;;28.61
34023;BMP280;20673;48.980;8.138;2023-06-26T09:11:16;100026.90;;;28.88
34023;BMP280;20673;48.980;8.138;2023-06-26T09:13:44;100027.97;;;28.87
34023;BMP280;20673;48.980;8.138;2023-06-26T09:16:10;100034.31;;;29.14
34023;BMP280;20673;48.980;8.138;2023-06-26T09:18:36;100037.90;;;29.22
34023;BMP280;20673;48.980;8.138;2023-06-26T09:21:09;100038.01;;;29.04
34023;BMP280;20673;48.980;8.138;2023-06-26T09:23:39;100046.93;;;28.96
34023;BMP280;20673;48.980;8.138;2023-06-26T09:26:06;100046.17;;;28.97
34023;BMP280;20673;48.980;8.138;2023-06-26T09:28:33;100044.51;;;29.28
34023;BMP280;20673;48.980;8.138;2023-06-26T09:31:02;100053.18;;;29.46
34023;BMP280;20673;48.980;8.138;2023-06-26T09:33:36;100050.61;;;29.44
34023;BMP280;20673;48.980;8.138;2023-06-26T09:36:08;100057.53;;;29.52
34023;BMP280;20673;48.980;8.138;2023-06-26T09:38:36;100054.33;;;29.77
34023;BMP280;20673;48.980;8.138;2023-06-26T09:41:03;100043.15;;;30.11
34023;BMP280;20673;48.980;8.138;2023-06-26T09:43:29;100046.96;;;30.46
34023;BMP280;20673;48.980;8.138;2023-06-26T09:45:57;100050.93;;;30.22
34023;BMP280;20673;48.980;8.138;2023-06-26T09:48:24;100047.17;;;30.40
34023;BMP280;20673;48.980;8.138;2023-06-26T09:50:51;100050.65;;;30.57
34023;BMP280;20673;48.980;8.138;2023-06-26T09:53:17;100044.59;;;30.46
34023;BMP280;20673;48.980;8.138;2023-06-26T09:55:44;100053.64;;;30.53
34023;BMP280;20673;48.980;8.138;2023-06-26T09:58:11;100050.75;;;30.70
34023;BMP280;20673;48.980;8.138;2023-06-26T10:00:39;100055.86;;;30.82
34023;BMP280;20673;48.980;8.138;2023-06-26T10:03:05;100049.86;;;30.87
34023;BMP280;20673;48.980;8.138;2023-06-26T10:05:31;100054.56;;;30.49
34023;BMP280;20673;48.980;8.138;2023-06-26T10:07:59;100052.17;;;30.44
34023;BMP280;20673;48.980;8.138;2023-06-26T10:10:27;100054.58;;;30.50
34023;BMP280;20673;48.980;8.138;2023-06-26T10:12:59;100054.11;;;30.47
34023;BMP280;20673;48.980;8.138;2023-06-26T10:15:25;100045.10;;;30.58
34023;BMP280;20673;48.980;8.138;2023-06-26T10:17:55;100041.01;;;30.75
34023;BMP280;20673;48.980;8.138;2023-06-26T10:20:24;100049.06;;;30.83
34023;BMP280;20673;48.980;8.138;2023-06-26T10:22:55;100053.56;;;31.03
34023;BMP280;20673;48.980;8.138;2023-06-26T10:25:24;100053.11;;;30.93
34023;BMP280;20673;48.980;8.138;2023-06-26T10:27:57;100057.75;;;31.10
34023;BMP280;20673;48.980;8.138;2023-06-26T10:30:28;100048.86;;;30.45
34023;BMP280;20673;48.980;8.138;2023-06-26T10:32:56;100054.54;;;31.16
34023;BMP280;20673;48.980;8.138;2023-06-26T10:35:24;100040.14;;;30.80
34023;BMP280;20673;48.980;8.138;2023-06-26T10:37:51;100062.42;;;31.26
34023;BMP280;20673;48.980;8.138;2023-06-26T10:40:28;100059.50;;;31.55
34023;BMP280;20673;48.980;8.138;2023-06-26T10:43:08;100064.75;;;30.86
34023;BMP280;20673;48.980;8.138;2023-06-26T10:45:35;100073.41;;;30.94
34023;BMP280;20673;48.980;8.138;2023-06-26T10:48:03;100071.92;;;31.23
34023;BMP280;20673;48.980;8.138;2023-06-26T10:50:34;100070.56;;;31.21
34023;BMP280;20673;48.980;8.138;2023-06-26T10:53:22;100068.89;;;31.39
34023;BMP280;20673;48.980;8.138;2023-06-26T10:56:04;100070.29;;;31.89
34023;BMP280;20673;48.980;8.138;2023-06-26T11:01:23;100077.85;;;31.74
34023;BMP280;20673;48.980;8.138;2023-06-26T11:04:07;100075.72;;;31.65
34023;BMP280;20673;48.980;8.138;2023-06-26T11:06:35;100078.78;;;31.65
34023;BMP280;20673;48.980;8.138;2023-06-26T11:09:14;100062.70;;;31.29
34023;BMP280;20673;48.980;8.138;2023-06-26T11:11:56;100081.33;;;31.80
34023;BMP280;20673;48.980;8.138;2023-06-26T11:14:27;100061.79;;;31.57
34023;BMP280;20673;48.980;8.138;2023-06-26T11:16:56;100087.74;;;31.59
34023;BMP280;20673;48.980;8.138;2023-06-26T11:19:26;100074.14;;;31.75
34023;BMP280;20673;48.980;8.138;2023-06-26T11:22:01;100069.81;;;31.52
34023;BMP280;20673;48.980;8.138;2023-06-26T11:24:29;100084.50;;;31.83
34023;BMP280;20673;48.980;8.138;2023-06-26T11:27:02;100081.23;;;31.83
34023;BMP280;20673;48.980;8.138;2023-06-26T11:29:30;100073.76;;;31.58
34023;BMP280;20673;48.980;8.138;2023-06-26T11:32:01;100078.07;;;31.19
34023;BMP280;20673;48.980;8.138;2023-06-26T11:34:32;100076.43;;;31.08
34023;BMP280;20673;48.980;8.138;2023-06-26T11:36:59;100088.28;;;31.19
34023;BMP280;20673;48.980;8.138;2023-06-26T11:39:27;100089.22;;;31.27
34023;BMP280;20673;48.980;8.138;2023-06-26T11:41:53;100099.97;;;31.47
34023;BMP280;20673;48.980;8.138;2023-06-26T11:44:21;100099.75;;;31.65
34023;BMP280;20673;48.980;8.138;2023-06-26T11:46:51;100093.47;;;31.12
34023;BMP280;20673;48.980;8.138;2023-06-26T11:49:18;100100.95;;;31.24
34023;BMP280;20673;48.980;8.138;2023-06-26T11:51:46;100107.09;;;30.83
34023;BMP280;20673;48.980;8.138;2023-06-26T11:54:12;100103.58;;;31.17
34023;BMP280;20673;48.980;8.138;2023-06-26T11:56:40;100102.45;;;31.51
34023;BMP280;20673;48.980;8.138;2023-06-26T11:59:09;100109.25;;;31.55
34023;BMP280;20673;48.980;8.138;2023-06-26T12:01:39;100112.28;;;31.62
34023;BMP280;20673;48.980;8.138;2023-06-26T12:04:12;100102.97;;;31.62
34023;BMP280;20673;48.980;8.138;2023-06-26T12:06:40;100088.73;;;31.70
34023;BMP280;20673;48.980;8.138;2023-06-26T12:09:11;100082.18;;;31.73
34023;BMP280;20673;48.980;8.138;2023-06-26T12:11:41;100087.08;;;31.54
34023;BMP280;20673;48.980;8.138;2023-06-26T12:14:09;100088.94;;;31.68
34023;BMP280;20673;48.980;8.138;2023-06-26T12:16:37;100103.16;;;31.46
34023;BMP280;20673;48.980;8.138;2023-06-26T12:19:07;100092.08;;;31.70
34023;BMP280;20673;48.980;8.138;2023-06-26T12:24:08;100099.20;;;31.43
34023;BMP280;20673;48.980;8.138;2023-06-26T12:26:35;100097.41;;;32.06
34023;BMP280;20673;48.980;8.138;2023-06-26T12:29:05;100094.00;;;31.78
34023;BMP280;20673;48.980;8.138;2023-06-26T12:31:32;100086.49;;;32.16
34023;BMP280;20673;48.980;8.138;2023-06-26T12:34:00;100087.23;;;31.88
34023;BMP280;20673;48.980;8.138;2023-06-26T12:36:26;100091.08;;;31.49
34023;BMP280;20673;48.980;8.138;2023-06-26T12:38:54;100086.53;;;31.58
34023;BMP280;20673;48.980;8.138;2023-06-26T12:41:24;100076.42;;;31.58
34023;BMP280;20673;48.980;8.138;2023-06-26T12:43:56;100090.29;;;31.71
34023;BMP280;20673;48.980;8.138;2023-06-26T12:46:36;100094.65;;;31.63
34023;BMP280;20673;48.980;8.138;2023-06-26T12:49:02;100083.17;;;31.76
34023;BMP280;20673;48.980;8.138;2023-06-26T12:51:28;100075.55;;;32.14
34023;BMP280;20673;48.980;8.138;2023-06-26T12:53:54;100068.97;;;31.72
34023;BMP280;20673;48.980;8.138;2023-06-26T12:56:21;100065.61;;;32.30
34023;BMP280;20673;48.980;8.138;2023-06-26T12:58:47;100070.25;;;31.91
34023;BMP280;20673;48.980;8.138;2023-06-26T13:01:13;100082.72;;;31.49
34023;BMP280;20673;48.980;8.138;2023-06-26T13:03:43;100071.63;;;31.60
34023;BMP280;20673;48.980;8.138;2023-06-26T13:06:09;100068.95;;;31.92
34023;BMP280;20673;48.980;8.138;2023-06-26T13:08:36;100068.75;;;31.90
34023;BMP280;20673;48.980;8.138;2023-06-26T13:11:02;100060.64;;;32.31
34023;BMP280;20673;48.980;8.138;2023-06-26T13:13:29;100064.61;;;32.03
34023;BMP280;20673;48.980;8.138;2023-06-26T13:15:55;100077.81;;;31.82
34023;BMP280;20673;48.980;8.138;2023-06-26T13:18:21;100073.95;;;31.87
34023;BMP280;20673;48.980;8.138;2023-06-26T13:20:47;100068.11;;;31.73
34023;BMP280;20673;48.980;8.138;2023-06-26T13:23:13;100065.22;;;31.52
34023;BMP280;20673;48.980;8.138;2023-06-26T13:25:40;100072.97;;;31.41
34023;BMP280;20673;48.980;8.138;2023-06-26T13:28:06;100071.26;;;31.50
34023;BMP280;20673;48.980;8.138;2023-06-26T13:30:32;100068.40;;;32.25
34023;BMP280;20673;48.980;8.138;2023-06-26T13:32:58;100075.68;;;32.00
34023;BMP280;20673;48.980;8.138;2023-06-26T13:35:24;100074.33;;;31.68
34023;BMP280;20673;48.980;8.138;2023-06-26T13:37:50;100066.75;;;31.89
34023;BMP280;20673;48.980;8.138;2023-06-26T13:40:16;100077.59;;;31.96
34023;BMP280;20673;48.980;8.138;2023-06-26T13:42:42;100075.26;;;32.07
34023;BMP280;20673;48.980;8.138;2023-06-26T13:45:10;100062.18;;;32.21
34023;BMP280;20673;48.980;8.138;2023-06-26T13:47:37;100066.58;;;31.88
34023;BMP280;20673;48.980;8.138;2023-06-26T13:50:07;100075.76;;;31.99
34023;BMP280;20673;48.980;8.138;2023-06-26T13:52:33;100076.86;;;32.06
34023;BMP280;20673;48.980;8.138;2023-06-26T13:54:59;100077.58;;;31.84
34023;BMP280;20673;48.980;8.138;2023-06-26T13:57:26;100067.98;;;32.29
34023;BMP280;20673;48.980;8.138;2023-06-26T13:59:53;100058.58;;;32.08
34023;BMP280;20673;48.980;8.138;2023-06-26T14:02:19;100088.42;;;32.02
34023;BMP280;20673;48.980;8.138;2023-06-26T14:04:45;100082.49;;;31.40
34023;BMP280;20673;48.980;8.138;2023-06-26T14:07:11;100080.63;;;31.17
34023;BMP280;20673;48.980;8.138;2023-06-26T14:09:38;100076.98;;;31.48
34023;BMP280;20673;48.980;8.138;2023-06-26T14:12:05;100077.26;;;31.34
34023;BMP280;20673;48.980;8.138;2023-06-26T14:14:31;100078.32;;;31.10
34023;BMP280;20673;48.980;8.138;2023-06-26T14:16:58;100078.84;;;31.08
34023;BMP280;20673;48.980;8.138;2023-06-26T14:19:25;100077.62;;;30.94
34023;BMP280;20673;48.980;8.138;2023-06-26T14:21:52;100077.23;;;31.37